TimeCST,TemperatureF,Dew PointF,Humidity,Sea Level PressureIn,VisibilityMPH,Wind Direction,Wind SpeedMPH,Gust SpeedMPH,PrecipitationIn,Events,Conditions,WindDirDegrees,DateUTC
12:00 AM,64,59,79,29.85,12,ENE,4.6,,,,Clear,70,2012-12-04 06:00:00
12:00 AM,64.4,59.0,83,30.03,-9999.0,ENE,4.6,-,N/A,,Clear,70,2012-12-04 06:00:00
1:00 AM,68.0,57.2,68,30.02,-9999.0,East,4.6,-,N/A,,Clear,90,2012-12-04 07:00:00
2:00 AM,62.6,57.2,82,30.01,-9999.0,ENE,6.9,-,N/A,,Clear,60,2012-12-04 08:00:00
3:00 AM,66,56,61,29.85,12,ENE,6.9,,,,Clear,60,2012-12-04 09:00:00
3:00 AM,66.2,55.4,68,30.00,-9999.0,NE,8.1,-,N/A,,Clear,40,2012-12-04 09:00:00
4:00 AM,66.2,55.4,68,30.00,-9999.0,NE,8.1,-,N/A,,Clear,40,2012-12-04 10:00:00
5:00 AM,64.4,55.4,73,30.02,-9999.0,ENE,5.8,-,N/A,,Clear,60,2012-12-04 11:00:00
6:00 AM,66,56,61,29.89,12,NE,5.8,,,,Scattered Clouds,50,2012-12-04 12:00:00
6:00 AM,66.2,55.4,68,30.03,-9999.0,NE,5.8,-,N/A,,Clear,50,2012-12-04 12:00:00
7:00 AM,71.6,55.4,57,30.06,-9999.0,East,8.1,-,N/A,,Clear,80,2012-12-04 13:00:00
8:00 AM,75.2,57.2,53,30.08,-9999.0,ENE,5.8,-,N/A,,Clear,70,2012-12-04 14:00:00
9:00 AM,78,57,37,29.91,12,ESE,9.2,,,,Clear,120,2012-12-04 15:00:00
9:00 AM,77.0,57.2,50,30.08,-9999.0,ESE,9.2,-,N/A,,Clear,120,2012-12-04 15:00:00
10:00 AM,80.6,57.2,45,30.07,-9999.0,SE,8.1,-,N/A,,Clear,130,2012-12-04 16:00:00
11:00 AM,82.4,57.2,42,30.05,-9999.0,SE,6.9,-,N/A,,Clear,130,2012-12-04 17:00:00
11:40 AM,80.6,66.2,61,30.04,-9999.0,WSW,11.5,-,N/A,,Partly Cloudy,240,2012-12-04 17:40:00
12:00 PM,80,65,52,29.83,12,WSW,10.4,,,,Partly Cloudy,240,2012-12-04 18:00:00
12:00 PM,78.8,66.2,65,30.04,6.2,WSW,10.4,-,N/A,,Scattered Clouds,240,2012-12-04 18:00:00
1:00 PM,80.6,66.2,61,30.01,6.2,SW,11.5,-,N/A,,Partly Cloudy,230,2012-12-04 19:00:00
2:00 PM,80.6,66.2,61,29.99,6.2,SW,10.4,-,N/A,,Scattered Clouds,230,2012-12-04 20:00:00
3:00 PM,77,67,63,29.83,6,SW,10.4,,,Rain,Rain,230,2012-12-04 21:00:00
3:00 PM,77.0,66.2,69,29.98,6.2,SW,10.4,-,N/A,Rain,Rain,230,2012-12-04 21:00:00
3:19 PM,73.4,68.0,83,30.00,0.9,SW,9.2,-,N/A,Rain-Thunderstorm,Light Thunderstorms and Rain,220,2012-12-04 21:19:00
3:45 PM,71.6,68.0,88,30.01,4.3,WSW,6.9,-,N/A,Rain-Thunderstorm,Light Thunderstorms and Rain,250,2012-12-04 21:45:00
4:00 PM,69.8,66.2,88,30.00,5.6,South,4.6,-,N/A,Rain-Thunderstorm,Light Thunderstorms and Rain,170,2012-12-04 22:00:00
5:00 PM,69.8,66.2,88,30.00,6.2,East,3.5,-,N/A,,Mostly Cloudy,80,2012-12-04 23:00:00
6:00 PM,69,66,87,29.89,9,West,3.5,,,,Overcast,270,2012-12-05 00:00:00
6:00 PM,69.8,66.2,88,30.02,6.2,West,3.5,-,N/A,,Mostly Cloudy,270,2012-12-05 00:00:00
7:00 PM,69.8,66.2,88,30.06,5.0,West,3.5,-,N/A,Fog,Drizzle,280,2012-12-05 01:00:00
8:00 PM,69.8,66.2,88,30.08,3.1,West,4.6,-,N/A,,Drizzle,260,2012-12-05 02:00:00
9:00 PM,67,65,91,29.93,9,SSE,2.3,,,,Scattered Clouds,150,2012-12-05 03:00:00
9:00 PM,68.0,64.4,88,30.09,6.2,SSE,2.3,-,N/A,,Mostly Cloudy,150,2012-12-05 03:00:00
10:00 PM,68.0,64.4,88,30.09,6.2,ESE,3.5,-,N/A,,Mostly Cloudy,120,2012-12-05 04:00:00
11:00 PM,68.0,62.6,83,30.08,6.2,ENE,4.6,-,N/A,,Scattered Clouds,70,2012-12-05 05:00:00